Aeroporto :
LOGIN :

Iscrizione | Disclaimer

   EN    FR    IT 

 










Sommario :    VFR   VFR Marginale   IFR   IFR Intensivo   IFR Molto Intensivo
Visibilità : 
Base nubi : 
>= 8 km
>= 3000ft
5 / 8 km
1000 / 3000 ft
1500m / 5 km
500 / 1000 ft
800 / 1500m
200 / 500 ft
< 800m
< 200 ft
Simboli :   Temporali  Nebbia  Neve Forte  Precipitazioni Forti  Vento > 20 kt
SIGMETs :   Varie  Temporali  Ghiacco  Turbolenza  Onda orograficha  Ceneri Vulcaniche






- Altitudine del aeroporto : 15 ft
- Codice IATA : FCO


LIRF - Roma Leonardo da Vinci Fiumicino

ULTIMO METAR :
  • 122250Z 06006KT 9999 FEW050 12/10 Q0993 NOSIG

METARs OBSOLETI :
  • 122220Z 07008KT CAVOK 12/10 Q0992 NOSIG
  • 122150Z 07009KT 9999 FEW050 12/10 Q0993 NOSIG
  • 122120Z 08008KT 9999 FEW050 12/10 Q0993 NOSIG
  • 122050Z 08008KT 9999 FEW050 12/10 Q0993 NOSIG

TAF COR TAF LIRF
Valido dal 12 a 12 ore il 13 a 18 ore UTC


121222Z 1212/1318 05008KT 9999 SCT030
TEMPO 1212/1214 SHRA
BECMG 1213/1215 15015G25KT
TEMPO 1214/1219 4000 TSRA
TEMPO 1300/1307 4000 TSRA
BECMG 1304/1306 35010KT
BECMG 1309/1311 26018KT



MetMap, La meteo Aeronautica in un colpo d'occhio ! - Copyright ORBIFLY Dicembre 2007 - Disclaimer

ORBIFLY MET'MAP TEAM :

Programmazione e sviluppo : Alexandra Zaïnal
Concezione e sviluppo : Baudouin d'Aumeries
Co-Programmazione e sviluppo : Marc-Olivier Méhu
Supporto tecnico e logistico : Manuel Goepfert
Aiuto per la traduzione : Arnaldo La Scala

Contatto : metmap@orbifly.com




FONTI E CREDITI :

   NOAA